Time;durP1;ratioP1;P1;durP2;ratioP2;P2;SDS_P1;SDS_P2;PMS_P1;PMS_P2;Temp;Humidity;BMP_temperature;BMP_pressure;BME280_temperature;BME280_humidity;BME280_pressure;Samples;Min_cycle;Max_cycle;Signal;HPM_P1;HPM_P2
2024/01/06 00:01:30;;;;;;;3.72;3.10;;;;;;;5.90;79.48;96805.50;4994003;28;20214;-76
2024/01/06 00:03:57;;;;;;;5.00;4.32;;;;;;;5.82;79.79;96811.06;4988856;28;20569;-76
2024/01/06 00:06:24;;;;;;;5.57;3.60;;;;;;;5.86;79.80;96812.28;4992248;28;20199;-76
2024/01/06 00:08:53;;;;;;;3.60;3.30;;;;;;;5.69;80.44;96814.53;4982764;28;20203;-75
2024/01/06 00:11:20;;;;;;;8.13;4.45;;;;;;;5.78;80.11;96818.69;5000806;28;20214;-76
2024/01/06 00:13:47;;;;;;;4.30;3.88;;;;;;;5.77;80.19;96816.19;4990597;28;20624;-75
2024/01/06 00:16:13;;;;;;;6.30;4.05;;;;;;;5.90;79.82;96821.63;4990543;28;20201;-75
2024/01/06 00:18:40;;;;;;;4.72;4.22;;;;;;;5.71;80.40;96815.97;4992959;28;20293;-76
2024/01/06 00:21:06;;;;;;;5.03;4.53;;;;;;;5.85;79.77;96814.13;5006222;28;20211;-77
2024/01/06 00:23:34;;;;;;;4.93;3.80;;;;;;;5.70;79.86;96805.44;4990554;28;20207;-76
2024/01/06 00:26:02;;;;;;;4.68;3.60;;;;;;;5.73;80.27;96823.81;4990348;28;20222;-75
2024/01/06 00:28:28;;;;;;;3.65;3.30;;;;;;;5.82;79.74;96822.63;5022230;28;20257;-76
2024/01/06 00:30:55;;;;;;;4.00;3.70;;;;;;;5.72;80.03;96824.84;4991414;28;20653;-75
2024/01/06 00:33:22;;;;;;;4.72;3.75;;;;;;;5.63;80.43;96820.69;4988502;28;20227;-76
2024/01/06 00:35:48;;;;;;;4.80;3.40;;;;;;;5.61;80.47;96831.63;5007225;28;20298;-76
2024/01/06 00:38:15;;;;;;;5.32;3.85;;;;;;;5.60;80.72;96826.44;4990721;28;20207;-76
2024/01/06 00:40:43;;;;;;;5.25;3.90;;;;;;;5.69;80.51;96830.63;4990307;28;20597;-76
2024/01/06 00:43:10;;;;;;;5.57;3.55;;;;;;;5.56;80.50;96827.88;4973341;28;20278;-76
2024/01/06 00:45:37;;;;;;;4.72;3.42;;;;;;;5.63;79.86;96820.69;4988426;28;21000;-75
2024/01/06 00:48:04;;;;;;;6.95;3.22;;;;;;;5.77;79.72;96829.63;4985623;28;20218;-76
2024/01/06 00:50:30;;;;;;;4.32;3.92;;;;;;;5.63;79.70;96828.75;4990241;28;20208;-75
2024/01/06 00:52:57;;;;;;;5.38;3.75;;;;;;;5.55;80.28;96834.28;4991341;28;21030;-75
2024/01/06 00:55:24;;;;;;;4.45;3.95;;;;;;;5.49;80.48;96835.94;4990803;28;21441;-76
2024/01/06 00:57:52;;;;;;;3.95;3.50;;;;;;;5.60;80.08;96837.19;4970485;28;20606;-76
2024/01/06 01:00:27;;;;;;;3.58;3.28;;;;;;;5.24;81.46;96840.94;4984306;28;20215;-75
2024/01/06 01:02:53;;;;;;;3.83;3.42;;;;;;;5.14;81.78;96847.72;4991357;28;20668;-76
2024/01/06 01:05:20;;;;;;;5.88;2.85;;;;;;;5.24;81.48;96854.34;4992284;28;20282;-75
2024/01/06 01:07:46;;;;;;;3.50;3.20;;;;;;;5.20;81.46;96863.81;4988669;28;20222;-75
2024/01/06 01:10:13;;;;;;;4.28;3.00;;;;;;;5.36;80.89;96858.16;5007972;28;20707;-76
2024/01/06 01:12:40;;;;;;;4.45;3.22;;;;;;;5.28;81.04;96863.66;4989718;28;20299;-75
2024/01/06 01:15:09;;;;;;;5.20;2.63;;;;;;;5.37;80.51;96859.81;4988631;28;20210;-76
2024/01/06 01:17:36;;;;;;;4.25;2.65;;;;;;;5.34;80.63;96865.56;4991335;28;20290;-76
2024/01/06 01:20:04;;;;;;;5.80;3.33;;;;;;;5.44;80.28;96867.88;5006257;28;20292;-76
2024/01/06 01:22:31;;;;;;;4.75;2.83;;;;;;;5.40;79.94;96869.31;4986651;28;20214;-76
2024/01/06 01:25:05;;;;;;;4.90;2.42;;;;;;;5.54;79.53;96868.34;4991170;28;20200;-75
2024/01/06 01:27:31;;;;;;;4.40;2.60;;;;;;;5.43;79.77;96868.09;4989625;28;20211;-75
2024/01/06 01:29:58;;;;;;;4.57;2.30;;;;;;;5.25;80.28;96877.47;4991674;28;20199;-76
2024/01/06 01:32:25;;;;;;;2.88;2.10;;;;;;;5.36;79.83;96876.09;4984947;28;20279;-76
2024/01/06 01:34:52;;;;;;;2.88;2.20;;;;;;;5.38;79.79;96872.19;4988800;28;20227;-76
2024/01/06 01:37:19;;;;;;;3.80;2.40;;;;;;;5.37;79.65;96875.06;4990115;28;20225;-75
2024/01/06 01:39:45;;;;;;;3.72;2.20;;;;;;;5.42;79.42;96878.00;4986214;28;20199;-76
2024/01/06 01:42:14;;;;;;;3.70;1.67;;;;;;;5.47;79.36;96880.09;4989389;28;20204;-76
2024/01/06 01:44:41;;;;;;;6.00;2.35;;;;;;;5.29;79.70;96883.28;4989888;28;20207;-75
2024/01/06 01:47:09;;;;;;;4.55;2.35;;;;;;;5.48;79.20;96881.75;4998422;28;20207;-76
2024/01/06 01:49:37;;;;;;;4.97;1.90;;;;;;;5.50;78.79;96879.69;4988977;28;20560;-76
2024/01/06 01:52:04;;;;;;;3.70;2.10;;;;;;;5.49;78.51;96884.22;4986253;28;20203;-76
2024/01/06 01:54:30;;;;;;;2.15;1.95;;;;;;;5.48;78.84;96892.47;4985752;28;20215;-76
2024/01/06 01:56:57;;;;;;;2.22;1.75;;;;;;;5.68;78.29;96893.38;4999395;28;20215;-76
2024/01/06 01:59:23;;;;;;;5.50;2.30;;;;;;;5.52;78.39;96893.72;4969050;28;20211;-75
2024/01/06 02:01:50;;;;;;;2.47;2.00;;;;;;;5.52;78.39;96886.50;4989531;28;20293;-76
2024/01/06 02:04:17;;;;;;;5.30;2.00;;;;;;;5.46;78.68;96889.16;4989410;28;20207;-76
2024/01/06 02:06:45;;;;;;;3.67;2.00;;;;;;;5.45;78.45;96892.88;4989042;28;20207;-76
2024/01/06 02:09:12;;;;;;;5.30;2.00;;;;;;;5.57;78.15;96891.25;4984990;28;20565;-75
2024/01/06 02:11:38;;;;;;;3.40;1.83;;;;;;;5.50;78.45;96898.47;5019328;28;20211;-76
2024/01/06 02:14:05;;;;;;;3.85;2.00;;;;;;;5.37;79.08;96894.69;4987205;28;20226;-76
2024/01/06 02:16:31;;;;;;;3.35;1.85;;;;;;;5.42;78.72;96899.44;4988477;28;20246;-75
2024/01/06 02:18:58;;;;;;;4.07;1.92;;;;;;;5.40;78.74;96906.88;4989050;28;20210;-76
2024/01/06 02:21:25;;;;;;;3.75;1.45;;;;;;;5.38;78.55;96899.00;4988580;28;20199;-76
2024/01/06 02:23:53;;;;;;;3.85;1.90;;;;;;;5.48;78.28;96903.19;4988741;28;20278;-76
2024/01/06 02:26:20;;;;;;;3.17;1.65;;;;;;;5.39;78.30;96906.03;4987542;28;20565;-76
2024/01/06 02:28:47;;;;;;;4.43;1.60;;;;;;;5.55;77.98;96914.78;4985704;28;20214;-76
2024/01/06 02:31:15;;;;;;;4.80;1.90;;;;;;;5.50;77.87;96901.97;4985513;28;20238;-76
2024/01/06 02:33:42;;;;;;;2.88;2.00;;;;;;;5.63;77.49;96911.94;4987526;28;20223;-76
2024/01/06 02:36:08;;;;;;;4.45;2.05;;;;;;;5.53;77.41;96912.28;5003970;28;20329;-76
2024/01/06 02:38:35;;;;;;;2.83;1.85;;;;;;;5.54;77.30;96918.47;4988230;28;20208;-76
2024/01/06 02:41:03;;;;;;;3.80;1.67;;;;;;;5.48;77.47;96919.31;4988626;28;20199;-76
2024/01/06 02:43:30;;;;;;;4.00;1.60;;;;;;;5.47;77.50;96925.69;4983113;28;20289;-76
2024/01/06 02:45:56;;;;;;;2.55;1.80;;;;;;;5.48;77.38;96927.34;4988978;28;20544;-76
2024/01/06 02:48:24;;;;;;;2.55;1.45;;;;;;;5.38;77.38;96920.47;4998944;28;20725;-76
2024/01/06 02:50:50;;;;;;;3.75;2.13;;;;;;;5.46;77.25;96916.81;4986956;28;20298;-75
2024/01/06 02:53:18;;;;;;;3.70;2.17;;;;;;;5.48;76.84;96913.94;5003439;28;20227;-76
2024/01/06 02:55:44;;;;;;;2.20;1.60;;;;;;;5.52;76.54;96917.88;4989300;28;20325;-76
2024/01/06 02:58:12;;;;;;;3.13;1.50;;;;;;;5.44;76.63;96921.53;4989126;28;20199;-76
2024/01/06 03:00:39;;;;;;;3.53;1.80;;;;;;;5.33;76.83;96917.56;4988089;28;20696;-76
2024/01/06 03:03:07;;;;;;;2.28;1.70;;;;;;;5.34;76.53;96921.91;4988203;28;20207;-75
2024/01/06 03:05:34;;;;;;;6.38;2.03;;;;;;;5.34;76.74;96927.25;4987458;28;20204;-76
2024/01/06 03:08:00;;;;;;;6.25;1.90;;;;;;;5.34;76.34;96926.44;4989889;28;20266;-76
2024/01/06 03:10:27;;;;;;;3.38;1.55;;;;;;;5.29;76.47;96937.75;4971516;28;20654;-76
2024/01/06 03:12:53;;;;;;;2.67;1.50;;;;;;;5.21;76.61;96929.84;4990891;28;20290;-76
2024/01/06 03:15:21;;;;;;;2.90;1.70;;;;;;;5.33;76.34;96932.81;4985962;28;20229;-76
2024/01/06 03:17:48;;;;;;;5.82;2.05;;;;;;;5.13;76.46;96926.50;4985573;28;20299;-76
2024/01/06 03:20:15;;;;;;;4.80;1.80;;;;;;;5.07;76.65;96928.94;4987178;28;20572;-76
2024/01/06 03:22:42;;;;;;;3.53;1.65;;;;;;;5.11;76.18;96924.00;5004720;28;20215;-76
2024/01/06 03:25:09;;;;;;;2.72;1.85;;;;;;;5.07;76.29;96923.56;4985785;28;20233;-76
2024/01/06 03:27:36;;;;;;;3.60;2.00;;;;;;;5.13;76.38;96921.97;4985373;28;20203;-75
2024/01/06 03:30:03;;;;;;;2.55;1.63;;;;;;;5.12;75.95;96917.63;4985990;28;20195;-76
2024/01/06 03:32:31;;;;;;;3.10;1.80;;;;;;;5.05;76.05;96924.78;4988701;28;20214;-76
2024/01/06 03:34:57;;;;;;;3.35;1.58;;;;;;;5.07;75.86;96922.75;4987630;28;20215;-77
2024/01/06 03:37:26;;;;;;;3.55;2.20;;;;;;;4.99;75.89;96923.72;4987322;28;20214;-76
2024/01/06 03:39:52;;;;;;;5.60;2.00;;;;;;;5.07;75.64;96920.91;4985576;28;20207;-76
2024/01/06 03:42:21;;;;;;;3.05;1.88;;;;;;;5.16;75.46;96920.75;4989774;28;20211;-76
2024/01/06 03:44:48;;;;;;;1.80;1.33;;;;;;;5.14;75.58;96915.59;4988213;28;20548;-76
2024/01/06 03:47:14;;;;;;;4.47;1.65;;;;;;;5.07;75.67;96920.06;4987772;28;20211;-76
2024/01/06 03:49:42;;;;;;;3.58;1.35;;;;;;;5.11;75.54;96921.34;5004619;28;20206;-76
2024/01/06 03:52:08;;;;;;;5.72;1.67;;;;;;;5.22;75.21;96923.47;4990812;28;20284;-76
2024/01/06 03:54:35;;;;;;;3.50;1.88;;;;;;;5.14;75.54;96914.75;4985646;28;20220;-76
2024/01/06 03:57:02;;;;;;;3.80;1.58;;;;;;;5.22;75.49;96918.09;4987996;28;20200;-76
2024/01/06 03:59:28;;;;;;;6.35;1.98;;;;;;;5.22;75.20;96918.09;4983675;28;20233;-76
2024/01/06 04:01:55;;;;;;;3.72;1.40;;;;;;;5.25;75.06;96922.22;4988834;28;20221;-76
2024/01/06 04:04:22;;;;;;;3.53;1.35;;;;;;;5.20;75.29;96920.13;4988264;28;20294;-76
2024/01/06 04:06:50;;;;;;;3.22;1.70;;;;;;;5.18;75.47;96922.22;4986822;28;20211;-76
2024/01/06 04:09:16;;;;;;;2.65;1.88;;;;;;;5.21;75.33;96923.66;4987260;28;20207;-76
2024/01/06 04:11:43;;;;;;;5.60;1.77;;;;;;;5.30;75.36;96927.84;4995344;28;20683;-76
2024/01/06 04:14:10;;;;;;;3.13;1.80;;;;;;;5.30;75.04;96925.16;4989712;28;20587;-76
2024/01/06 04:16:36;;;;;;;2.03;1.80;;;;;;;5.33;75.43;96925.59;4993027;28;20269;-76
2024/01/06 04:19:03;;;;;;;4.15;2.08;;;;;;;5.39;74.84;96922.13;4990674;28;20206;-75
2024/01/06 04:21:29;;;;;;;4.35;1.38;;;;;;;5.28;75.19;96929.91;4991307;28;20203;-76
2024/01/06 04:23:57;;;;;;;3.33;1.60;;;;;;;5.26;75.33;96930.09;4989944;28;20813;-76
2024/01/06 04:26:23;;;;;;;4.63;2.00;;;;;;;5.17;75.91;96933.97;4992628;28;20242;-75
2024/01/06 04:28:50;;;;;;;3.88;1.70;;;;;;;5.27;75.72;96939.78;5023983;28;20207;-76
2024/01/06 04:31:17;;;;;;;2.22;1.50;;;;;;;5.28;75.48;96940.63;4986254;28;20706;-76
2024/01/06 04:33:43;;;;;;;4.28;1.90;;;;;;;5.21;75.68;96939.75;4973482;28;20207;-76
2024/01/06 04:36:10;;;;;;;4.20;1.70;;;;;;;5.19;76.10;96947.19;4991664;28;20297;-75
2024/01/06 04:38:36;;;;;;;4.88;2.10;;;;;;;5.07;76.16;96946.88;4992449;28;20203;-76
2024/01/06 04:41:04;;;;;;;7.15;2.03;;;;;;;5.16;76.14;96945.72;4988815;28;20683;-76
2024/01/06 04:43:31;;;;;;;4.88;1.95;;;;;;;5.38;75.51;96944.63;4989364;28;20210;-76
2024/01/06 04:45:59;;;;;;;3.03;1.92;;;;;;;5.26;75.71;96940.81;4970228;28;21026;-76
2024/01/06 04:48:25;;;;;;;2.85;1.42;;;;;;;5.21;75.89;96953.97;4985124;28;20210;-76
2024/01/06 04:50:52;;;;;;;4.50;2.00;;;;;;;5.11;76.49;96945.47;4973590;28;20206;-76
2024/01/06 04:53:19;;;;;;;2.67;1.40;;;;;;;5.11;76.24;96945.47;4991913;28;20217;-76
2024/01/06 04:55:47;;;;;;;5.35;1.90;;;;;;;5.09;76.64;96949.38;4988388;28;20218;-76
2024/01/06 04:58:15;;;;;;;3.70;1.92;;;;;;;5.15;76.36;96956.63;4991566;28;20255;-75
2024/01/06 05:00:41;;;;;;;2.88;2.00;;;;;;;5.16;76.42;96945.72;4991721;28;20196;-76
2024/01/06 05:03:08;;;;;;;10.23;2.80;;;;;;;5.04;76.60;96953.47;4991817;28;20954;-76
2024/01/06 05:05:34;;;;;;;2.70;1.90;;;;;;;4.96;77.32;96952.75;4986951;28;20299;-76
2024/01/06 05:08:01;;;;;;;4.90;2.03;;;;;;;4.88;77.62;96960.94;4989551;28;20205;-76
2024/01/06 05:10:28;;;;;;;3.20;1.75;;;;;;;4.82;77.90;96970.59;5004826;28;20657;-76
2024/01/06 05:12:54;;;;;;;5.45;2.00;;;;;;;4.85;77.66;96967.53;4990052;28;20211;-75
2024/01/06 05:15:22;;;;;;;6.38;2.38;;;;;;;4.89;77.69;96968.78;4987627;28;20229;-76
2024/01/06 05:17:49;;;;;;;3.65;2.30;;;;;;;4.92;77.80;96967.56;4988043;28;20297;-76
2024/01/06 05:20:15;;;;;;;4.45;2.10;;;;;;;4.75;78.17;96971.56;4990646;28;20660;-76
2024/01/06 05:22:42;;;;;;;6.53;2.53;;;;;;;4.85;78.09;96972.06;4989848;28;20203;-76
2024/01/06 05:25:09;;;;;;;3.08;2.03;;;;;;;4.90;78.20;96974.97;4989904;28;20203;-76
2024/01/06 05:27:36;;;;;;;2.25;2.00;;;;;;;4.92;77.88;96978.28;4989291;28;20211;-76
2024/01/06 05:30:03;;;;;;;3.92;1.92;;;;;;;4.80;78.49;96979.84;4991126;28;20256;-76
2024/01/06 05:32:30;;;;;;;3.00;2.45;;;;;;;4.81;78.51;96976.97;4992215;28;20206;-76
2024/01/06 05:34:57;;;;;;;3.85;2.40;;;;;;;4.83;78.38;96987.50;4991488;28;20625;-76
2024/01/06 05:37:23;;;;;;;4.75;2.28;;;;;;;4.93;78.28;96990.69;4998885;28;20301;-76
2024/01/06 05:39:50;;;;;;;6.20;2.67;;;;;;;4.87;78.29;96986.09;4990366;28;20207;-76
2024/01/06 05:42:16;;;;;;;3.60;2.28;;;;;;;4.85;78.24;96994.34;4987583;28;20704;-76
2024/01/06 05:44:43;;;;;;;4.07;2.53;;;;;;;4.91;78.12;96998.06;4991876;28;20325;-76
2024/01/06 05:47:09;;;;;;;7.18;2.90;;;;;;;4.89;78.24;96994.75;4989768;28;20207;-76
2024/01/06 05:49:42;;;;;;;3.50;2.47;;;;;;;4.99;78.00;96993.41;4989956;28;20203;-76
2024/01/06 05:52:09;;;;;;;4.15;2.40;;;;;;;4.80;78.62;96986.03;4991694;28;20262;-76
2024/01/06 05:54:35;;;;;;;5.20;2.40;;;;;;;4.60;79.43;96996.53;4986804;28;20223;-76
2024/01/06 05:57:02;;;;;;;4.82;2.30;;;;;;;4.82;78.99;96996.56;4988964;28;20195;-77
2024/01/06 05:59:29;;;;;;;3.42;2.17;;;;;;;4.98;78.17;96998.97;4989375;28;20203;-76
2024/01/06 06:01:55;;;;;;;4.32;2.50;;;;;;;4.87;78.34;97002.19;4988123;28;20198;-76
2024/01/06 06:04:22;;;;;;;6.15;2.30;;;;;;;4.82;78.48;97008.13;4987036;28;20206;-76
2024/01/06 06:06:50;;;;;;;4.18;2.58;;;;;;;4.73;79.19;97018.13;4988880;28;20199;-76
2024/01/06 06:09:17;;;;;;;4.00;2.63;;;;;;;4.65;79.31;97020.94;4981069;28;20222;-76
2024/01/06 06:11:44;;;;;;;4.90;2.70;;;;;;;4.53;80.09;97027.00;4987592;28;20195;-76
2024/01/06 06:14:10;;;;;;;5.53;2.70;;;;;;;4.45;80.02;97029.78;4996408;28;20210;-76
2024/01/06 06:16:37;;;;;;;3.45;2.50;;;;;;;4.46;80.16;97031.44;4987709;28;20289;-76
2024/01/06 06:19:04;;;;;;;4.78;2.85;;;;;;;4.41;80.17;97041.88;4987151;28;20565;-76
2024/01/06 06:21:30;;;;;;;4.05;2.70;;;;;;;4.47;80.47;97047.31;4981165;28;20206;-76
2024/01/06 06:23:58;;;;;;;3.50;2.47;;;;;;;4.55;79.76;97052.53;4988807;28;20282;-76
2024/01/06 06:26:25;;;;;;;3.53;2.80;;;;;;;4.60;79.77;97043.94;4987464;28;20215;-76
2024/01/06 06:28:51;;;;;;;3.58;3.08;;;;;;;4.57;79.67;97047.00;5003465;28;20616;-77
2024/01/06 06:31:18;;;;;;;3.75;3.33;;;;;;;4.61;79.45;97048.28;4988176;28;20229;-76
2024/01/06 06:33:45;;;;;;;4.82;3.50;;;;;;;4.50;79.58;97044.28;4983356;28;20691;-76
2024/01/06 06:36:11;;;;;;;7.82;4.18;;;;;;;4.38;79.87;97051.13;4986770;28;20223;-74
2024/01/06 06:38:38;;;;;;;3.40;3.08;;;;;;;4.42;79.87;97052.41;4990077;28;20294;-73
2024/01/06 06:41:06;;;;;;;5.00;2.95;;;;;;;4.36;79.87;97051.31;4989377;28;20208;-75
2024/01/06 06:43:33;;;;;;;6.07;3.63;;;;;;;4.24;80.41;97050.13;4989054;28;20250;-75
2024/01/06 06:45:59;;;;;;;8.82;3.70;;;;;;;4.28;80.20;97056.75;4986545;28;20656;-75
2024/01/06 06:48:26;;;;;;;3.70;3.40;;;;;;;4.42;79.60;97057.75;4983255;28;20282;-75
2024/01/06 06:50:53;;;;;;;4.97;3.30;;;;;;;4.34;80.07;97058.69;4984844;28;20211;-75
2024/01/06 06:53:20;;;;;;;3.42;2.83;;;;;;;4.34;80.11;97068.56;5004084;28;20210;-75
2024/01/06 06:55:47;;;;;;;6.80;3.20;;;;;;;4.50;79.28;97068.38;4989053;28;20229;-75
2024/01/06 06:58:14;;;;;;;3.35;3.05;;;;;;;4.38;79.51;97077.91;4989109;28;20203;-75
2024/01/06 07:00:42;;;;;;;3.78;3.47;;;;;;;4.48;78.83;97073.09;4984066;28;20212;-75
2024/01/06 07:03:09;;;;;;;4.28;3.25;;;;;;;4.56;78.59;97075.63;4989516;28;20210;-75
2024/01/06 07:05:35;;;;;;;6.63;3.70;;;;;;;4.69;77.94;97070.44;4986718;28;20191;-75
2024/01/06 07:08:02;;;;;;;4.47;3.60;;;;;;;4.73;77.50;97074.41;4989491;28;20223;-74
2024/01/06 07:10:31;;;;;;;3.50;3.20;;;;;;;4.80;76.89;97084.38;4984360;28;20203;-74
2024/01/06 07:12:57;;;;;;;4.40;4.00;;;;;;;4.68;77.28;97084.88;4988784;28;20871;-75
2024/01/06 07:15:25;;;;;;;4.63;3.75;;;;;;;4.70;77.12;97088.19;5003252;28;20285;-74
2024/01/06 07:17:52;;;;;;;4.20;3.85;;;;;;;4.79;76.55;97090.75;4985946;28;20203;-80
2024/01/06 07:20:19;;;;;;;7.30;3.80;;;;;;;4.86;78.54;97094.34;4986414;28;20753;-73
2024/01/06 07:22:46;;;;;;;6.68;4.60;;;;;;;4.95;76.29;97093.19;4989469;28;20574;-73
2024/01/06 07:25:12;;;;;;;3.30;3.00;;;;;;;5.33;75.15;97091.91;4969021;28;20612;-75
2024/01/06 07:27:39;;;;;;;3.67;3.22;;;;;;;5.08;75.61;97090.66;4969032;28;20633;-78
2024/01/06 07:30:07;;;;;;;3.45;3.22;;;;;;;5.16;75.31;97098.59;4970284;28;20207;-79
2024/01/06 07:32:36;;;;;;;3.60;3.03;;;;;;;5.39;74.60;97101.88;4985427;28;20207;-74
2024/01/06 07:35:03;;;;;;;4.15;3.47;;;;;;;5.40;74.14;97100.88;4982817;28;20918;-72
2024/01/06 07:37:30;;;;;;;3.20;2.90;;;;;;;5.28;74.90;97107.75;4980757;28;20218;-73
2024/01/06 07:39:56;;;;;;;3.35;3.05;;;;;;;5.36;74.44;97098.75;5021113;28;20914;-74
2024/01/06 07:42:23;;;;;;;3.60;3.25;;;;;;;5.08;74.91;97093.34;4984379;28;20526;-74
2024/01/06 07:44:49;;;;;;;5.88;3.53;;;;;;;5.07;75.08;97110.44;4987889;28;20207;-74
2024/01/06 07:47:16;;;;;;;3.50;3.20;;;;;;;5.17;74.77;97110.13;4987388;28;20199;-75
2024/01/06 07:49:44;;;;;;;2.85;2.65;;;;;;;5.16;74.99;97114.66;4990961;28;20661;-75
2024/01/06 07:52:11;;;;;;;3.15;2.80;;;;;;;5.19;74.54;97106.25;4990818;28;20207;-73
2024/01/06 07:54:37;;;;;;;4.22;2.90;;;;;;;5.33;74.34;97115.22;4985759;28;20543;-75
2024/01/06 07:57:04;;;;;;;3.20;2.90;;;;;;;5.29;74.48;97114.78;4988557;28;20573;-75
2024/01/06 07:59:31;;;;;;;4.50;3.88;;;;;;;5.17;74.98;97110.13;4988355;28;20277;-74
2024/01/06 08:01:58;;;;;;;4.38;3.35;;;;;;;5.38;74.56;97110.97;4988347;28;20267;-74
2024/01/06 08:04:24;;;;;;;3.70;3.40;;;;;;;5.45;74.30;97107.50;4999595;28;20521;-74
2024/01/06 08:06:52;;;;;;;4.38;3.97;;;;;;;5.26;74.50;97099.06;4987987;28;20231;-72
2024/01/06 08:09:19;;;;;;;3.47;3.10;;;;;;;5.24;74.04;97111.84;4990951;28;20199;-73
2024/01/06 08:11:48;;;;;;;3.28;2.97;;;;;;;5.25;74.15;97118.88;4987384;28;20346;-73
2024/01/06 08:14:16;;;;;;;3.92;3.63;;;;;;;5.21;74.49;97122.94;4997781;28;20209;-73
2024/01/06 08:16:43;;;;;;;3.70;3.40;;;;;;;5.26;74.34;97120.53;4991292;28;20223;-73
2024/01/06 08:19:09;;;;;;;4.60;2.88;;;;;;;5.24;74.33;97122.56;4986052;28;21463;-72
2024/01/06 08:21:36;;;;;;;3.80;2.60;;;;;;;5.11;74.22;97125.13;4985130;28;20210;-73
2024/01/06 08:24:09;;;;;;;3.03;2.83;;;;;;;5.20;74.41;97115.94;5023132;28;20217;-74
2024/01/06 08:26:35;;;;;;;3.40;3.10;;;;;;;5.29;74.04;97120.16;4989889;28;20626;-77
2024/01/06 08:29:03;;;;;;;3.38;3.08;;;;;;;5.40;73.59;97116.13;4990410;28;20207;-83
2024/01/06 08:31:29;;;;;;;4.85;3.40;;;;;;;5.52;72.88;97125.34;5003574;28;20649;-76
2024/01/06 08:33:56;;;;;;;3.47;3.17;;;;;;;5.47;73.22;97130.44;4991799;28;20207;-76
2024/01/06 08:36:23;;;;;;;4.55;3.40;;;;;;;5.67;72.40;97128.75;4999129;28;20706;-76
2024/01/06 08:38:49;;;;;;;3.38;3.08;;;;;;;5.60;72.33;97133.22;4989275;28;20649;-76
2024/01/06 08:41:17;;;;;;;3.00;2.80;;;;;;;5.76;72.06;97136.69;4992497;28;20203;-76
2024/01/06 08:43:44;;;;;;;3.80;3.50;;;;;;;5.76;72.11;97132.13;4993830;28;20210;-76
2024/01/06 08:46:11;;;;;;;3.50;3.20;;;;;;;5.73;72.04;97132.53;4990769;28;20712;-76
2024/01/06 08:48:38;;;;;;;3.88;2.88;;;;;;;5.93;71.98;97138.91;5003268;28;20219;-76
2024/01/06 08:51:05;;;;;;;3.72;3.05;;;;;;;5.82;72.58;97149.31;4976325;28;20207;-76
2024/01/06 08:53:33;;;;;;;3.30;2.88;;;;;;;5.99;72.00;97143.50;4989450;28;20705;-76
2024/01/06 08:55:59;;;;;;;3.58;3.28;;;;;;;5.72;72.79;97141.59;4991536;28;20313;-76
2024/01/06 08:58:27;;;;;;;3.50;3.20;;;;;;;5.77;72.66;97147.22;5005806;28;20298;-76
2024/01/06 09:00:54;;;;;;;3.08;2.70;;;;;;;5.85;72.64;97147.06;4991312;28;20225;-75
2024/01/06 09:03:24;;;;;;;3.92;3.55;;;;;;;5.83;73.47;97145.63;4992666;28;20218;-76
2024/01/06 09:05:52;;;;;;;4.13;3.25;;;;;;;6.00;72.09;97145.16;4989309;28;20284;-75
2024/01/06 09:08:18;;;;;;;3.80;3.50;;;;;;;6.01;72.55;97152.19;5007449;28;20213;-76
2024/01/06 09:10:45;;;;;;;4.38;3.97;;;;;;;5.89;72.73;97151.06;4989597;28;20203;-76
2024/01/06 09:13:11;;;;;;;3.85;3.45;;;;;;;6.08;72.85;97160.31;5006682;28;20211;-75
2024/01/06 09:15:39;;;;;;;3.78;3.47;;;;;;;6.07;72.45;97154.09;5023164;28;20207;-76
2024/01/06 09:18:06;;;;;;;3.65;3.30;;;;;;;6.16;72.39;97156.63;4993512;28;20204;-76
2024/01/06 09:20:32;;;;;;;2.80;2.60;;;;;;;6.26;72.20;97154.41;4991329;28;20556;-76
2024/01/06 09:22:59;;;;;;;3.30;3.00;;;;;;;6.27;72.43;97169.50;4991496;28;20687;-75
2024/01/06 09:25:25;;;;;;;3.60;2.78;;;;;;;6.36;72.35;97163.78;4989618;28;20218;-75
2024/01/06 09:27:53;;;;;;;2.90;2.70;;;;;;;6.46;72.56;97166.13;4991240;28;20218;-75
2024/01/06 09:30:19;;;;;;;3.75;3.10;;;;;;;6.47;72.98;97159.72;4991683;28;20203;-76
2024/01/06 09:32:47;;;;;;;3.20;2.90;;;;;;;6.32;72.96;97167.06;4984410;28;20202;-75
2024/01/06 09:35:14;;;;;;;6.32;2.85;;;;;;;6.07;73.51;97167.53;5023652;28;20298;-74
2024/01/06 09:37:42;;;;;;;2.95;2.75;;;;;;;5.95;74.63;97169.06;4998472;28;20217;-75
2024/01/06 09:40:12;;;;;;;4.72;3.42;;;;;;;5.84;75.48;97184.88;4991972;28;20294;-75
2024/01/06 09:42:39;;;;;;;3.83;3.47;;;;;;;5.65;76.17;97189.03;4982606;28;20258;-75
2024/01/06 09:45:07;;;;;;;3.15;2.95;;;;;;;5.84;76.57;97188.38;4991852;28;20199;-75
2024/01/06 09:47:35;;;;;;;4.97;3.95;;;;;;;6.10;75.71;97178.91;4982329;28;20207;-75
2024/01/06 09:50:09;;;;;;;3.00;2.80;;;;;;;6.20;74.94;97204.38;4989570;28;20217;-75
2024/01/06 09:52:38;;;;;;;3.50;3.20;;;;;;;6.06;75.33;97192.72;4982525;28;20242;-75
2024/01/06 09:55:09;;;;;;;3.78;2.80;;;;;;;5.87;75.83;97197.88;4990878;28;20728;-75
2024/01/06 09:57:36;;;;;;;3.08;2.85;;;;;;;6.16;75.06;97202.31;4989111;28;20207;-74
2024/01/06 10:00:04;;;;;;;3.40;3.10;;;;;;;6.04;75.19;97205.50;4991904;28;20210;-75
2024/01/06 10:02:31;;;;;;;3.20;2.90;;;;;;;6.15;75.43;97203.34;4990423;28;20208;-75
2024/01/06 10:04:58;;;;;;;4.68;2.85;;;;;;;6.11;75.38;97200.19;4986689;28;20222;-75
2024/01/06 10:07:27;;;;;;;3.40;3.10;;;;;;;6.10;74.89;97192.34;4988273;28;20207;-74
2024/01/06 10:09:55;;;;;;;4.03;3.00;;;;;;;6.11;74.89;97194.00;4999576;28;20294;-75
2024/01/06 10:12:24;;;;;;;3.10;2.80;;;;;;;6.11;74.87;97196.69;4990750;28;20214;-75
2024/01/06 10:14:51;;;;;;;3.15;2.85;;;;;;;6.17;74.82;97198.59;4992192;28;20554;-75
2024/01/06 10:17:18;;;;;;;3.88;3.25;;;;;;;6.10;75.61;97192.34;5006975;28;20231;-75
2024/01/06 10:19:45;;;;;;;3.20;3.00;;;;;;;5.88;76.13;97200.38;4973860;28;20221;-75
2024/01/06 10:22:13;;;;;;;3.67;3.38;;;;;;;5.94;76.01;97194.25;4989079;28;20207;-75
2024/01/06 10:24:41;;;;;;;3.50;3.20;;;;;;;6.01;76.36;97197.84;5006708;28;20282;-75
2024/01/06 10:27:08;;;;;;;4.40;3.45;;;;;;;6.05;76.67;97203.66;4989535;28;20630;-75
2024/01/06 10:29:35;;;;;;;3.50;3.20;;;;;;;5.95;77.61;97192.41;4990249;28;20211;-75
2024/01/06 10:32:02;;;;;;;4.63;3.17;;;;;;;5.96;77.25;97192.22;4983282;28;20564;-75
2024/01/06 10:34:32;;;;;;;3.63;3.40;;;;;;;5.95;78.05;97193.25;4999317;28;20203;-75
2024/01/06 10:36:58;;;;;;;3.72;3.30;;;;;;;5.77;78.50;97187.50;4990012;28;20702;-75
2024/01/06 10:39:25;;;;;;;3.45;3.20;;;;;;;5.81;78.99;97202.19;4990329;28;20681;-76
2024/01/06 10:41:53;;;;;;;3.53;3.20;;;;;;;5.87;78.68;97203.25;4988127;28;20199;-75
2024/01/06 10:44:20;;;;;;;3.60;3.30;;;;;;;5.75;79.00;97194.91;4990253;28;20653;-76
2024/01/06 10:46:47;;;;;;;4.05;3.63;;;;;;;5.80;78.71;97197.84;4989280;28;20199;-75
2024/01/06 10:49:15;;;;;;;4.88;4.43;;;;;;;5.66;79.61;97202.25;4991355;28;20211;-75
2024/01/06 10:51:41;;;;;;;4.38;3.95;;;;;;;5.87;78.83;97204.06;4988199;28;20290;-75
2024/01/06 10:54:09;;;;;;;4.05;3.75;;;;;;;5.81;79.22;97204.88;4982483;28;20213;-76
2024/01/06 10:56:38;;;;;;;4.30;4.00;;;;;;;5.72;79.50;97206.03;4990237;28;20310;-74
2024/01/06 10:59:07;;;;;;;4.47;4.10;;;;;;;5.75;79.40;97205.66;4990327;28;20243;-75
2024/01/06 11:01:34;;;;;;;4.30;3.90;;;;;;;5.70;79.52;97202.69;5003542;28;20246;-75
2024/01/06 11:04:01;;;;;;;4.68;4.10;;;;;;;5.72;79.85;97190.75;4973205;28;20218;-75
2024/01/06 11:06:28;;;;;;;4.70;4.30;;;;;;;5.81;79.62;97191.44;4989353;28;20277;-75
2024/01/06 11:09:00;;;;;;;4.47;4.07;;;;;;;5.86;79.25;97191.69;4992696;28;20211;-75
2024/01/06 11:11:27;;;;;;;4.35;3.95;;;;;;;5.77;79.67;97189.34;4994392;28;20609;-74
2024/01/06 11:13:53;;;;;;;5.07;4.60;;;;;;;5.81;79.83;97190.63;4998225;28;20210;-74
2024/01/06 11:16:35;;;;;;;5.00;4.03;;;;;;;5.78;79.67;97191.84;4998578;28;20229;-76
2024/01/06 11:19:02;;;;;;;5.30;4.80;;;;;;;5.64;79.91;97195.41;4999252;28;20294;-74
2024/01/06 11:21:35;;;;;;;7.13;4.93;;;;;;;5.71;80.00;97196.31;5005394;28;20757;-75
2024/01/06 11:24:16;;;;;;;6.57;6.05;;;;;;;5.77;79.67;97192.84;4987755;28;20203;-75
2024/01/06 11:26:44;;;;;;;5.55;5.05;;;;;;;5.78;79.87;97188.31;4995531;28;20214;-74
2024/01/06 11:29:12;;;;;;;5.45;4.95;;;;;;;5.86;80.15;97191.69;4992087;28;20549;-75
2024/01/06 11:31:40;;;;;;;5.80;5.30;;;;;;;5.85;79.67;97190.00;4993199;28;20261;-75
2024/01/06 11:34:13;;;;;;;5.82;5.32;;;;;;;5.90;79.67;97186.78;4988004;28;20207;-76
2024/01/06 11:36:40;;;;;;;5.30;4.85;;;;;;;5.68;80.39;97178.72;5024820;28;20700;-75
2024/01/06 11:39:07;;;;;;;5.25;4.82;;;;;;;5.60;80.52;97175.34;4993819;28;20299;-75
2024/01/06 11:41:49;;;;;;;5.45;5.00;;;;;;;5.77;80.54;97176.75;4991372;28;20206;-75